KCNC

Chariton Municipal Airport

Chariton, Iowa, USA
METAR KCNC 211435Z AUTO 00000KT 2SM BR OVC003 15/15 A3002 RMK AO2
Observed Flight Rules
May-21 @ 14:35 UTC (12 minutes ago) Instrument Flight Rules
Visibility Clouds Conditions
2 miles
  • Overcast at 300' AGL
  • Mist
Temperatures Readings
Current 15°C / 59°F
Dewpoint 15°C / 59°F
Humidity 100%
Altimeter 30.02" Hg
Pressure 1017 hPa
Elevation 320
METAR KCNC 211435Z AUTO 00000KT 2SM BR OVC003 15/15 A3002 RMK AO2
Observed Flight Rules
May-21 @ 14:35 UTC
(12 minutes ago)
LIFR
Clouds
  • Overcast at 300' AGL
Conditions
  • Mist
Temperature Dewpoint
15°C / 59°F 15°C / 59°F
Humidity Altimeter Pressure
100% 30.02" Hg 1017 hPa